Time;durP1;ratioP1;P1;durP2;ratioP2;P2;SDS_P1;SDS_P2;PMS_P1;PMS_P2;Temp;Humidity;BMP_temperature;BMP_pressure;BME280_temperature;BME280_humidity;BME280_pressure;Samples;Min_cycle;Max_cycle;Signal;HPM_P1;HPM_P2
2023/04/28 00:00:56;;;;;;;4.50;3.27;;;9.00;1.00;;;;;;5095326;28;20547;-79
2023/04/28 00:03:22;;;;;;;5.77;3.37;;;9.00;1.00;;;;;;5069869;28;20234;-80
2023/04/28 00:05:48;;;;;;;3.53;3.23;;;9.00;1.00;;;;;;5070925;28;20282;-80
2023/04/28 00:08:14;;;;;;;4.63;3.20;;;9.10;1.00;;;;;;5095034;28;20206;-80
2023/04/28 00:10:39;;;;;;;3.80;3.03;;;9.10;99.90;;;;;;5094319;28;20164;-82
2023/04/28 00:13:05;;;;;;;6.97;3.60;;;9.10;99.90;;;;;;5076397;28;20176;-80
2023/04/28 00:15:30;;;;;;;4.23;3.60;;;9.20;1.00;;;;;;5094902;28;20735;-79
2023/04/28 00:17:56;;;;;;;4.63;3.60;;;9.20;99.90;;;;;;5077298;28;20169;-80
2023/04/28 00:20:21;;;;;;;9.33;3.70;;;9.10;1.00;;;;;;5077883;28;20175;-83
2023/04/28 00:22:48;;;;;;;4.47;3.43;;;9.10;1.00;;;;;;5077365;28;20197;-79
2023/04/28 00:25:13;;;;;;;4.50;3.37;;;9.10;99.90;;;;;;5095767;28;20226;-79
2023/04/28 00:27:39;;;;;;;4.00;3.33;;;9.10;1.00;;;;;;5095714;28;20184;-80
2023/04/28 00:30:05;;;;;;;3.83;3.47;;;9.10;1.00;;;;;;5077453;28;20225;-79
2023/04/28 00:32:31;;;;;;;3.70;3.40;;;9.10;1.00;;;;;;5077452;28;20176;-79
2023/04/28 00:34:57;;;;;;;6.27;3.33;;;9.10;99.90;;;;;;5095649;28;20175;-79
2023/04/28 00:37:22;;;;;;;7.37;3.83;;;9.10;99.90;;;;;;5077810;28;20196;-81
2023/04/28 00:39:48;;;;;;;6.33;3.40;;;9.20;18.80;;;;;;5095956;28;20195;-80
2023/04/28 00:42:14;;;;;;;4.33;3.63;;;9.20;1.00;;;;;;5077564;28;20186;-79
2023/04/28 00:44:40;;;;;;;3.70;3.23;;;9.20;99.90;;;;;;5095759;28;20178;-79
2023/04/28 00:47:07;;;;;;;4.40;3.27;;;9.20;8.10;;;;;;5076876;28;20678;-79
2023/04/28 00:49:34;;;;;;;3.60;3.03;;;9.10;99.90;;;;;;5076745;28;20240;-81
2023/04/28 00:52:06;;;;;;;4.67;3.20;;;9.00;1.00;;;;;;5099444;28;20176;-80
2023/04/28 00:54:35;;;;;;;4.17;3.40;;;9.00;99.90;;;;;;5081407;28;20684;-79
2023/04/28 00:57:04;;;;;;;3.83;3.43;;;9.00;1.00;;;;;;5099513;28;20231;-79
2023/04/28 00:59:30;;;;;;;5.57;3.40;;;9.00;1.00;;;;;;5098952;28;20176;-79
2023/04/28 01:01:55;;;;;;;3.67;3.10;;;9.10;1.00;;;;;;5080840;28;20180;-80
2023/04/28 01:04:22;;;;;;;3.97;3.30;;;9.10;99.90;;;;;;5080911;28;20235;-79
2023/04/28 01:06:49;;;;;;;4.30;3.00;;;9.10;99.90;;;;;;5080702;28;20620;-81
2023/04/28 01:09:15;;;;;;;3.90;3.30;;;9.10;1.00;;;;;;5098740;28;20232;-79
2023/04/28 01:11:41;;;;;;;3.70;3.30;;;9.10;99.90;;;;;;5098955;28;20267;-79
2023/04/28 01:14:06;;;;;;;5.20;3.30;;;9.00;1.00;;;;;;5099067;28;20175;-79
2023/04/28 01:16:33;;;;;;;4.83;3.33;;;9.00;99.90;;;;;;5080509;28;20247;-81
2023/04/28 01:18:59;;;;;;;4.47;3.40;;;9.10;1.00;;;;;;5080198;28;20176;-79
2023/04/28 01:21:31;;;;;;;4.23;3.30;;;9.10;6.70;;;;;;5080722;28;20172;-80
2023/04/28 01:23:57;;;;;;;4.87;3.20;;;9.10;99.90;;;;;;5098919;28;20171;-80
2023/04/28 01:26:23;;;;;;;4.37;3.40;;;9.00;1.00;;;;;;5080440;28;20231;-79
2023/04/28 01:28:48;;;;;;;5.90;3.70;;;9.10;1.00;;;;;;5080240;28;20186;-81
2023/04/28 01:31:14;;;;;;;3.67;3.27;;;9.10;1.00;;;;;;5079834;28;20195;-79
2023/04/28 01:33:39;;;;;;;5.30;3.70;;;9.10;1.00;;;;;;5079498;28;20185;-79
2023/04/28 01:36:05;;;;;;;3.97;3.50;;;9.10;1.00;;;;;;5079701;28;20674;-80
2023/04/28 01:38:31;;;;;;;4.77;3.70;;;9.10;1.00;;;;;;5079694;28;20176;-80
2023/04/28 01:40:57;;;;;;;4.83;3.57;;;9.10;99.90;;;;;;5097998;28;20177;-79
2023/04/28 01:43:23;;;;;;;4.17;3.50;;;9.10;99.90;;;;;;5079533;28;20187;-80
2023/04/28 01:45:48;;;;;;;4.63;3.77;;;9.00;1.00;;;;;;5079568;28;20195;-79
2023/04/28 01:48:14;;;;;;;5.83;4.13;;;9.00;1.00;;;;;;5079492;28;20271;-79
2023/04/28 01:50:39;;;;;;;5.90;4.10;;;9.00;1.00;;;;;;5079702;28;20171;-80
2023/04/28 01:53:05;;;;;;;7.10;4.73;;;8.90;1.00;;;;;;5097366;28;20176;-79
2023/04/28 01:55:50;;;;;;;5.97;4.60;;;8.80;99.90;;;;;;5078799;28;20227;-79
2023/04/28 01:58:15;;;;;;;4.27;3.33;;;8.80;1.00;;;;;;5096907;28;20171;-80
2023/04/28 02:00:41;;;;;;;4.57;4.13;;;8.80;99.90;;;;;;5078336;28;20650;-79
2023/04/28 02:03:07;;;;;;;5.00;4.50;;;8.90;1.00;;;;;;5079761;28;20176;-79
2023/04/28 02:05:32;;;;;;;5.13;4.20;;;8.70;1.00;;;;;;5097263;28;20198;-80
2023/04/28 02:07:58;;;;;;;6.33;4.30;;;8.60;1.00;;;;;;5093416;28;20197;-82
2023/04/28 02:10:23;;;;;;;4.70;4.30;;;8.60;1.00;;;;;;5072181;28;20275;-79
2023/04/28 02:12:49;;;;;;;7.80;4.60;;;8.60;1.00;;;;;;5091010;28;20214;-79
2023/04/28 02:15:15;;;;;;;5.47;4.87;;;8.70;1.00;;;;;;5097693;28;20199;-80
2023/04/28 02:17:41;;;;;;;6.67;4.57;;;8.70;1.00;;;;;;5079233;28;20585;-79
2023/04/28 02:20:07;;;;;;;5.23;4.73;;;8.80;1.00;;;;;;5079048;28;20307;-80
2023/04/28 02:22:32;;;;;;;5.40;4.90;;;8.70;1.00;;;;;;5070407;28;20654;-81
2023/04/28 02:24:58;;;;;;;6.30;4.70;;;8.70;1.00;;;;;;5066542;28;20189;-80
2023/04/28 02:27:24;;;;;;;5.83;4.80;;;8.70;1.00;;;;;;5088316;28;20191;-80
2023/04/28 02:29:49;;;;;;;6.60;5.20;;;8.70;1.00;;;;;;5068445;28;20187;-79
2023/04/28 02:32:15;;;;;;;7.67;5.20;;;8.70;1.00;;;;;;5077000;28;20619;-80
2023/04/28 02:34:40;;;;;;;5.70;4.00;;;8.80;1.00;;;;;;5097428;28;20195;-79
2023/04/28 02:37:06;;;;;;;5.43;4.70;;;8.80;1.00;;;;;;5078850;28;20227;-79
2023/04/28 02:39:32;;;;;;;6.83;4.57;;;8.80;1.00;;;;;;5079414;28;20255;-80
2023/04/28 02:41:57;;;;;;;5.43;4.30;;;8.70;1.00;;;;;;5078764;28;20175;-81
2023/04/28 02:44:23;;;;;;;6.63;4.57;;;8.80;1.00;;;;;;5078994;28;20211;-80
2023/04/28 02:46:49;;;;;;;6.13;4.53;;;8.80;1.00;;;;;;5078363;28;20225;-80
2023/04/28 02:49:15;;;;;;;6.93;4.47;;;8.90;1.00;;;;;;5097073;28;20183;-80
2023/04/28 02:51:40;;;;;;;5.53;4.80;;;8.80;45.40;;;;;;5096944;28;20175;-80
2023/04/28 02:54:06;;;;;;;4.90;4.40;;;8.80;99.90;;;;;;5096589;28;20266;-80
2023/04/28 02:56:33;;;;;;;5.07;4.57;;;8.80;1.00;;;;;;5078176;28;20215;-80
2023/04/28 02:58:58;;;;;;;5.30;4.67;;;8.80;1.00;;;;;;5078193;28;20179;-80
2023/04/28 03:01:24;;;;;;;6.97;5.20;;;8.80;1.00;;;;;;5074993;28;20183;-79
2023/04/28 03:03:50;;;;;;;5.73;5.10;;;8.80;1.00;;;;;;5072314;28;20188;-82
2023/04/28 03:06:16;;;;;;;6.63;5.03;;;8.80;1.00;;;;;;5058106;28;20298;-80
2023/04/28 03:08:41;;;;;;;6.87;5.60;;;8.90;1.00;;;;;;5058027;28;20568;-80
2023/04/28 03:11:07;;;;;;;6.57;5.30;;;8.90;1.00;;;;;;5057619;28;20182;-80
2023/04/28 03:13:32;;;;;;;6.70;5.13;;;8.90;1.00;;;;;;5075189;28;20726;-80
2023/04/28 03:15:58;;;;;;;5.87;5.13;;;8.90;1.00;;;;;;5075997;28;20200;-80
2023/04/28 03:18:23;;;;;;;7.30;5.33;;;8.90;12.60;;;;;;5068930;28;20168;-79
2023/04/28 03:20:49;;;;;;;7.53;6.00;;;8.90;1.00;;;;;;5078826;28;20172;-81
2023/04/28 03:23:15;;;;;;;7.90;5.63;;;8.90;6.60;;;;;;5071303;28;20240;-79
2023/04/28 03:25:41;;;;;;;8.67;5.57;;;8.80;91.80;;;;;;5070219;28;20782;-79
2023/04/28 03:28:06;;;;;;;7.50;5.50;;;8.80;99.90;;;;;;5079029;28;20172;-79
2023/04/28 03:30:32;;;;;;;8.03;5.50;;;8.70;99.90;;;;;;5078493;28;20181;-79
2023/04/28 03:32:58;;;;;;;7.20;5.20;;;8.80;99.90;;;;;;5079294;28;20206;-80
2023/04/28 03:35:23;;;;;;;5.77;5.27;;;8.80;99.90;;;;;;5079179;28;20248;-82
2023/04/28 03:37:49;;;;;;;6.60;5.50;;;8.80;99.90;;;;;;5078542;28;20186;-79
2023/04/28 03:40:15;;;;;;;6.60;5.40;;;8.70;99.90;;;;;;5096736;28;20237;-80
2023/04/28 03:42:41;;;;;;;8.77;5.67;;;8.80;99.90;;;;;;5097110;28;20182;-80
2023/04/28 03:45:07;;;;;;;7.63;5.57;;;8.80;1.00;;;;;;5079307;28;20172;-79
2023/04/28 03:47:33;;;;;;;7.77;5.67;;;8.90;1.00;;;;;;5079583;28;20275;-80
2023/04/28 03:49:58;;;;;;;7.13;5.10;;;8.90;1.00;;;;;;5096974;28;20211;-80
2023/04/28 03:52:25;;;;;;;5.93;5.33;;;8.80;1.00;;;;;;5079380;28;20190;-79
2023/04/28 03:54:50;;;;;;;7.83;5.30;;;8.80;1.00;;;;;;5078826;28;20179;-81
2023/04/28 03:57:16;;;;;;;8.43;5.70;;;8.80;1.00;;;;;;5097192;28;20219;-79
2023/04/28 03:59:41;;;;;;;6.03;5.17;;;8.90;1.00;;;;;;5096595;28;20172;-79
2023/04/28 04:02:07;;;;;;;6.40;5.20;;;8.90;1.00;;;;;;5079054;28;20262;-79
2023/04/28 04:04:33;;;;;;;10.13;6.20;;;8.90;1.00;;;;;;5097484;28;20180;-81
2023/04/28 04:06:59;;;;;;;7.80;5.67;;;8.90;1.00;;;;;;5078409;28;20199;-79
2023/04/28 04:09:25;;;;;;;7.83;5.70;;;8.80;34.10;;;;;;5096718;28;20212;-79
2023/04/28 04:11:50;;;;;;;6.57;5.70;;;8.80;82.50;;;;;;5079019;28;20176;-79
2023/04/28 04:14:16;;;;;;;6.90;5.57;;;8.80;16.40;;;;;;5078678;28;20170;-79
2023/04/28 04:16:42;;;;;;;8.03;6.10;;;8.70;99.90;;;;;;5079026;28;20269;-80
2023/04/28 04:19:07;;;;;;;7.83;6.00;;;8.80;64.40;;;;;;5079332;28;20182;-80
2023/04/28 04:21:33;;;;;;;9.30;6.30;;;8.70;99.90;;;;;;5077912;28;20261;-79
2023/04/28 04:23:58;;;;;;;7.33;6.20;;;8.70;99.90;;;;;;5096947;28;20180;-79
2023/04/28 04:26:24;;;;;;;7.17;5.80;;;8.70;99.90;;;;;;5097538;28;20201;-80
2023/04/28 04:28:50;;;;;;;9.27;6.00;;;8.70;70.70;;;;;;5097076;28;20189;-81
2023/04/28 04:31:17;;;;;;;7.90;5.93;;;8.70;1.00;;;;;;5097816;28;20174;-79
2023/04/28 04:33:42;;;;;;;8.23;5.90;;;8.70;1.00;;;;;;5098277;28;20174;-80
2023/04/28 04:36:08;;;;;;;12.17;5.90;;;8.80;92.20;;;;;;5099480;28;20198;-80
2023/04/28 04:38:33;;;;;;;6.60;4.90;;;8.80;96.70;;;;;;5078237;28;20260;-78
2023/04/28 04:40:59;;;;;;;6.47;5.10;;;8.90;99.90;;;;;;5075947;28;20182;-78
2023/04/28 04:43:25;;;;;;;7.70;5.50;;;9.20;99.90;;;;;;5076580;28;20171;-78
2023/04/28 04:45:50;;;;;;;7.20;5.00;;;9.40;99.90;;;;;;5076456;28;20205;-79
2023/04/28 04:48:16;;;;;;;8.10;5.57;;;9.70;99.90;;;;;;5094683;28;20205;-79
2023/04/28 04:50:43;;;;;;;7.27;5.90;;;10.00;1.00;;;;;;5076210;28;20176;-79
2023/04/28 04:53:08;;;;;;;8.13;5.93;;;10.10;1.00;;;;;;5076445;28;20196;-81
2023/04/28 04:55:34;;;;;;;9.33;6.37;;;10.30;99.90;;;;;;5122640;22;20211;-75
2023/04/28 04:58:00;;;;;;;9.33;6.50;;;10.30;99.90;;;;;;5068780;28;20204;-77
2023/04/28 05:00:26;;;;;;;8.90;6.37;;;9.80;99.90;;;;;;5070394;28;20314;-77
2023/04/28 05:02:51;;;;;;;9.90;7.20;;;9.50;1.00;;;;;;5070825;28;20172;-77
2023/04/28 05:05:17;;;;;;;9.33;6.90;;;9.30;1.00;;;;;;5071268;28;20179;-76
2023/04/28 05:07:42;;;;;;;7.57;6.63;;;9.10;1.00;;;;;;5072177;28;20227;-77
2023/04/28 05:10:10;;;;;;;10.00;7.40;;;9.00;1.00;;;;;;5070697;28;20175;-77
2023/04/28 05:12:36;;;;;;;9.77;7.13;;;9.00;6.50;;;;;;5071059;28;20268;-77
2023/04/28 05:15:02;;;;;;;8.80;6.97;;;8.90;91.80;;;;;;5071753;28;20657;-77
2023/04/28 05:17:28;;;;;;;8.30;6.77;;;8.90;81.50;;;;;;5072125;28;20686;-77
2023/04/28 05:19:53;;;;;;;8.17;6.70;;;8.90;1.00;;;;;;5071988;28;20224;-75
2023/04/28 05:22:19;;;;;;;10.57;6.67;;;8.70;1.00;;;;;;5073680;28;20239;-77
2023/04/28 05:24:44;;;;;;;10.00;7.80;;;8.70;99.90;;;;;;5072239;28;20172;-78
2023/04/28 05:27:10;;;;;;;8.50;7.30;;;8.70;99.90;;;;;;5070300;28;20195;-78
2023/04/28 05:29:36;;;;;;;10.97;7.43;;;8.70;99.90;;;;;;5070348;28;20240;-74
2023/04/28 05:32:01;;;;;;;10.70;7.10;;;8.70;99.90;;;;;;5071930;28;20179;-80
2023/04/28 05:34:27;;;;;;;8.07;7.10;;;8.70;99.90;;;;;;5072950;28;20176;-78
2023/04/28 05:36:52;;;;;;;13.17;7.40;;;8.80;99.90;;;;;;5073260;28;20215;-79
2023/04/28 05:39:18;;;;;;;12.67;7.90;;;8.80;99.90;;;;;;5075986;28;20176;-79
2023/04/28 05:41:43;;;;;;;8.93;7.03;;;8.80;99.90;;;;;;5076829;28;20172;-78
2023/04/28 05:44:09;;;;;;;10.67;7.77;;;8.90;99.90;;;;;;5075431;28;20171;-78
2023/04/28 05:46:35;;;;;;;9.10;7.57;;;8.80;99.90;;;;;;5076603;28;20293;-78
2023/04/28 05:49:01;;;;;;;12.30;7.40;;;8.80;99.90;;;;;;5075637;28;20244;-79
2023/04/28 05:51:27;;;;;;;11.87;7.97;;;8.80;99.90;;;;;;5077331;28;20660;-77
2023/04/28 05:53:52;;;;;;;9.33;7.57;;;8.70;99.90;;;;;;5076688;28;20543;-79
2023/04/28 05:56:19;;;;;;;10.03;7.73;;;8.70;99.90;;;;;;5075782;28;20270;-79
2023/04/28 06:35:05;;;;;;;9.77;8.17;;;9.20;99.90;;;;;;5053902;28;20178;-78
2023/04/28 06:37:31;;;;;;;10.93;9.00;;;9.30;99.90;;;;;;5053738;28;20206;-78
2023/04/28 06:39:56;;;;;;;12.87;9.07;;;9.30;99.90;;;;;;5053459;28;20180;-78
2023/04/28 06:42:22;;;;;;;9.90;8.23;;;9.30;99.90;;;;;;5053687;28;20203;-78
2023/04/28 06:44:47;;;;;;;11.53;8.13;;;9.40;99.90;;;;;;5053651;28;20534;-78
2023/04/28 06:47:13;;;;;;;10.70;8.33;;;9.40;99.90;;;;;;5053035;28;20198;-78
2023/04/28 06:49:38;;;;;;;10.17;7.97;;;9.40;99.90;;;;;;5052873;28;20268;-77
2023/04/28 06:52:06;;;;;;;8.97;7.90;;;9.40;99.90;;;;;;5068944;28;20184;-77
2023/04/28 06:54:32;;;;;;;10.53;8.00;;;9.40;99.90;;;;;;5053453;28;20177;-78
2023/04/28 06:56:57;;;;;;;10.50;8.33;;;9.40;99.90;;;;;;5053119;28;20216;-78
2023/04/28 06:59:23;;;;;;;11.90;8.00;;;9.40;99.90;;;;;;5059491;28;20185;-78
2023/04/28 07:01:48;;;;;;;11.60;8.07;;;9.50;99.90;;;;;;5063082;28;20244;-78
2023/04/28 07:04:14;;;;;;;9.50;7.67;;;9.60;99.90;;;;;;5064854;28;20169;-78
2023/04/28 07:06:40;;;;;;;11.10;8.07;;;9.50;99.90;;;;;;5071871;28;20222;-78
2023/04/28 07:09:05;;;;;;;8.87;7.40;;;9.60;99.90;;;;;;5071684;28;20314;-78
2023/04/28 07:11:32;;;;;;;9.30;7.83;;;9.60;99.90;;;;;;5072753;28;20187;-78
2023/04/28 07:13:57;;;;;;;9.57;8.10;;;9.60;99.90;;;;;;5073205;28;20658;-78
2023/04/28 07:16:24;;;;;;;8.83;7.73;;;9.60;99.90;;;;;;5072866;28;20212;-77
2023/04/28 07:18:50;;;;;;;10.00;7.77;;;9.60;99.90;;;;;;5072913;28;20177;-78
2023/04/28 07:21:16;;;;;;;11.07;7.73;;;9.60;99.90;;;;;;5072854;28;20176;-78
2023/04/28 07:23:42;;;;;;;10.80;8.13;;;9.70;99.90;;;;;;5072946;28;20169;-78
2023/04/28 07:26:08;;;;;;;11.20;8.03;;;9.70;99.90;;;;;;5072844;28;20271;-78
2023/04/28 07:28:34;;;;;;;11.27;8.07;;;9.70;99.90;;;;;;5073183;28;20203;-78
2023/04/28 07:30:59;;;;;;;11.67;7.73;;;9.70;99.90;;;;;;5072505;28;20205;-77
2023/04/28 07:33:25;;;;;;;9.43;7.90;;;9.80;99.90;;;;;;5072728;28;20176;-78
2023/04/28 07:35:51;;;;;;;10.03;7.57;;;9.80;99.90;;;;;;5072483;28;20205;-78
2023/04/28 07:38:19;;;;;;;10.07;7.80;;;9.80;99.90;;;;;;5072572;28;20200;-78
2023/04/28 07:40:45;;;;;;;10.70;7.73;;;9.80;99.90;;;;;;5071341;28;20202;-78
2023/04/28 07:43:10;;;;;;;12.07;7.93;;;9.80;99.90;;;;;;5071469;28;20195;-78
2023/04/28 07:45:39;;;;;;;9.70;8.57;;;9.70;99.90;;;;;;5071194;28;20203;-78
2023/04/28 07:48:05;;;;;;;9.70;8.37;;;9.70;99.90;;;;;;5071234;28;20177;-78
2023/04/28 07:50:31;;;;;;;10.93;8.73;;;9.80;99.90;;;;;;5072296;28;20177;-78
2023/04/28 07:52:57;;;;;;;11.93;8.63;;;9.90;99.90;;;;;;5072585;28;20186;-77
2023/04/28 07:55:23;;;;;;;10.70;9.30;;;9.90;99.90;;;;;;5064997;28;20640;-79
2023/04/28 07:57:48;;;;;;;10.80;9.03;;;9.90;99.90;;;;;;5063850;28;20201;-80
2023/04/28 08:00:15;;;;;;;10.87;9.30;;;9.90;99.90;;;;;;5072206;28;20164;-79
2023/04/28 08:02:40;;;;;;;10.57;8.93;;;9.90;99.90;;;;;;5072572;28;20181;-79
2023/04/28 08:05:07;;;;;;;9.97;8.80;;;9.90;99.90;;;;;;5072293;28;20196;-79
2023/04/28 08:07:33;;;;;;;13.50;9.13;;;10.00;99.90;;;;;;5071299;28;20188;-80
2023/04/28 08:10:00;;;;;;;12.30;9.40;;;10.00;99.90;;;;;;5071038;28;20632;-79
2023/04/28 08:12:26;;;;;;;12.00;9.40;;;10.10;99.90;;;;;;5070549;28;20173;-78
2023/04/28 08:14:51;;;;;;;10.70;8.83;;;10.20;99.90;;;;;;5065095;28;20256;-78
2023/04/28 08:17:17;;;;;;;10.50;9.00;;;10.40;99.90;;;;;;5050731;28;20300;-78
2023/04/28 08:19:45;;;;;;;10.77;8.27;;;10.70;99.90;;;;;;5050930;28;20215;-78
2023/04/28 08:22:11;;;;;;;12.63;9.53;;;10.90;99.90;;;;;;5052950;28;20177;-79
2023/04/28 08:24:36;;;;;;;11.00;8.93;;;10.90;99.90;;;;;;5074337;28;20178;-78
2023/04/28 08:27:02;;;;;;;10.50;8.80;;;10.90;99.90;;;;;;5080478;28;20204;-76
2023/04/28 08:29:31;;;;;;;9.97;8.90;;;11.00;99.90;;;;;;5074796;28;20195;-77
2023/04/28 08:31:57;;;;;;;9.90;8.90;;;11.00;99.90;;;;;;5063464;28;20177;-78
2023/04/28 08:34:26;;;;;;;10.00;8.50;;;11.00;99.90;;;;;;5081831;28;20191;-77
2023/04/28 08:36:52;;;;;;;9.37;8.20;;;10.90;99.90;;;;;;5092283;28;20204;-78
2023/04/28 08:39:19;;;;;;;11.83;8.90;;;10.80;99.90;;;;;;5092984;28;20168;-78
2023/04/28 08:41:48;;;;;;;11.37;8.73;;;10.70;99.90;;;;;;5092065;28;20245;-78
2023/04/28 08:44:22;;;;;;;12.23;9.37;;;10.70;99.90;;;;;;5093734;28;20182;-77
2023/04/28 08:46:53;;;;;;;10.87;9.40;;;10.70;99.90;;;;;;5070996;28;20196;-78
2023/04/28 08:49:22;;;;;;;13.43;8.93;;;10.70;99.90;;;;;;5056614;28;20182;-78
2023/04/28 08:51:54;;;;;;;11.50;9.40;;;10.70;99.90;;;;;;5053076;28;20636;-76
2023/04/28 08:54:20;;;;;;;12.00;9.20;;;10.70;99.90;;;;;;5054426;28;20239;-78
2023/04/28 08:56:47;;;;;;;10.73;9.07;;;10.70;99.90;;;;;;5073311;28;20211;-77
2023/04/28 08:59:13;;;;;;;12.67;9.17;;;10.80;99.90;;;;;;5072832;28;20169;-77
2023/04/28 09:01:39;;;;;;;10.37;8.87;;;10.80;99.90;;;;;;5073160;28;20300;-77
2023/04/28 09:04:05;;;;;;;11.53;8.60;;;10.90;99.90;;;;;;5080789;28;20302;-77
2023/04/28 09:06:33;;;;;;;11.60;8.73;;;10.80;99.90;;;;;;5093079;28;20192;-77
2023/04/28 09:09:23;;;;;;;12.23;9.50;;;10.80;99.90;;;;;;5093779;28;20175;-77
2023/04/28 09:11:58;;;;;;;11.80;8.97;;;10.80;99.90;;;;;;5095171;28;20165;-78
2023/04/28 09:14:25;;;;;;;11.57;9.83;;;10.80;99.90;;;;;;5098067;28;20224;-77
2023/04/28 09:16:51;;;;;;;12.53;9.63;;;10.70;99.90;;;;;;5096383;28;20216;-78
2023/04/28 09:19:16;;;;;;;12.37;10.20;;;10.60;99.90;;;;;;5097581;28;20195;-78
2023/04/28 09:21:49;;;;;;;11.63;9.60;;;10.60;99.90;;;;;;5095951;28;20169;-77
2023/04/28 09:24:38;;;;;;;14.77;10.53;;;10.70;99.90;;;;;;5096342;28;20168;-78
2023/04/28 09:27:06;;;;;;;11.47;9.37;;;10.70;99.90;;;;;;5096478;28;20202;-77
2023/04/28 09:29:32;;;;;;;11.33;9.40;;;10.80;99.90;;;;;;5096384;28;20264;-77
2023/04/28 09:32:13;;;;;;;12.27;9.77;;;10.90;99.90;;;;;;5096282;28;20183;-77
2023/04/28 09:34:44;;;;;;;10.03;8.73;;;10.80;99.90;;;;;;5096184;28;20710;-78
2023/04/28 09:37:20;;;;;;;11.10;9.17;;;10.90;99.90;;;;;;5095897;28;20690;-77
2023/04/28 09:39:48;;;;;;;11.07;9.83;;;10.90;99.90;;;;;;5095992;28;20172;-77
2023/04/28 09:42:42;;;;;;;13.20;10.23;;;10.90;99.90;;;;;;5096964;28;20180;-77
2023/04/28 09:45:10;;;;;;;11.93;9.33;;;11.10;99.90;;;;;;5095965;28;20180;-77
2023/04/28 09:47:38;;;;;;;12.60;9.50;;;11.10;99.90;;;;;;5095284;28;20568;-77
2023/04/28 09:50:08;;;;;;;11.97;8.93;;;11.20;99.90;;;;;;5095066;28;20267;-77
2023/04/28 09:52:34;;;;;;;11.37;9.30;;;11.30;99.90;;;;;;5095201;28;20180;-77
2023/04/28 09:55:02;;;;;;;12.27;9.87;;;11.30;99.90;;;;;;5095716;28;20169;-77
2023/04/28 09:57:32;;;;;;;11.23;9.70;;;11.30;99.90;;;;;;5096298;28;20211;-78
2023/04/28 10:00:00;;;;;;;10.47;9.37;;;11.30;99.90;;;;;;5095598;28;20299;-79
2023/04/28 10:02:27;;;;;;;10.67;8.90;;;11.30;99.90;;;;;;5095204;28;20176;-78
2023/04/28 10:04:52;;;;;;;13.60;9.37;;;11.30;99.90;;;;;;5096896;28;20173;-78
2023/04/28 10:07:19;;;;;;;12.63;9.83;;;11.40;99.90;;;;;;5095670;28;20192;-78
2023/04/28 10:09:49;;;;;;;11.43;9.90;;;11.40;99.90;;;;;;5096615;28;20172;-77
2023/04/28 10:12:24;;;;;;;10.63;9.53;;;11.40;99.90;;;;;;5069492;28;20223;-78
2023/04/28 10:14:54;;;;;;;11.47;9.67;;;11.50;99.90;;;;;;5078139;28;20173;-78
2023/04/28 10:17:21;;;;;;;11.10;9.10;;;11.50;99.90;;;;;;5074497;28;20208;-79
2023/04/28 10:19:49;;;;;;;11.03;9.30;;;11.60;99.90;;;;;;5076102;28;20173;-79
2023/04/28 10:22:21;;;;;;;11.93;9.63;;;11.60;99.90;;;;;;5076011;28;20180;-79
2023/04/28 10:25:15;;;;;;;9.90;8.70;;;11.60;99.90;;;;;;5075245;28;20169;-78
2023/04/28 10:27:43;;;;;;;10.87;8.67;;;11.60;99.90;;;;;;5073970;28;20225;-78
2023/04/28 10:30:20;;;;;;;10.10;9.00;;;11.70;99.90;;;;;;5075346;28;20288;-77
2023/04/28 10:32:47;;;;;;;9.27;8.10;;;11.70;99.90;;;;;;5074483;28;20173;-78
2023/04/28 10:35:28;;;;;;;10.20;8.50;;;11.70;99.90;;;;;;5075892;28;20204;-78
2023/04/28 10:38:07;;;;;;;10.23;7.90;;;11.70;99.90;;;;;;5082896;28;20231;-78
2023/04/28 10:40:39;;;;;;;8.83;7.23;;;11.80;99.90;;;;;;5094561;28;20207;-77
2023/04/28 10:43:09;;;;;;;9.60;7.67;;;11.80;99.90;;;;;;5094783;28;20171;-78
2023/04/28 10:45:53;;;;;;;8.63;7.73;;;11.80;99.90;;;;;;5094551;28;20183;-78
2023/04/28 10:48:18;;;;;;;7.30;5.77;;;11.90;99.90;;;;;;5093111;28;20606;-78
2023/04/28 10:51:02;;;;;;;6.13;5.53;;;12.00;99.90;;;;;;5094494;28;20646;-78
2023/04/28 10:53:43;;;;;;;5.60;4.10;;;12.00;99.90;;;;;;5093991;28;20180;-78
2023/04/28 10:58:41;;;;;;;4.33;3.93;;;12.00;99.90;;;;;;5051915;28;20218;-83
2023/04/28 11:01:24;;;;;;;4.30;3.90;;;11.90;99.90;;;;;;5053195;28;20182;-83
2023/04/28 11:04:10;;;;;;;4.23;3.83;;;12.00;99.90;;;;;;5052912;28;20201;-82
2023/04/28 11:06:44;;;;;;;3.40;3.10;;;12.00;99.90;;;;;;5052416;28;20190;-81
2023/04/28 11:09:18;;;;;;;3.80;3.40;;;12.10;99.90;;;;;;5053641;28;20198;-84
2023/04/28 11:11:59;;;;;;;3.50;3.20;;;12.20;99.90;;;;;;5053797;28;20173;-81
2023/04/28 11:14:24;;;;;;;3.67;3.30;;;12.20;99.90;;;;;;5054234;28;20179;-81
2023/04/28 11:17:01;;;;;;;3.40;3.10;;;12.30;99.90;;;;;;5052794;28;20205;-81
2023/04/28 11:19:41;;;;;;;3.27;2.97;;;12.30;99.90;;;;;;5053974;28;20182;-80
2023/04/28 11:22:18;;;;;;;3.50;3.20;;;12.30;99.90;;;;;;5053020;28;20166;-80
2023/04/28 11:24:57;;;;;;;3.70;3.40;;;12.30;99.90;;;;;;5052540;28;20178;-81
2023/04/28 11:27:26;;;;;;;4.90;3.70;;;12.30;99.90;;;;;;5052758;28;20251;-81
2023/04/28 11:29:52;;;;;;;4.03;3.33;;;12.20;99.90;;;;;;5052720;28;20239;-81
2023/04/28 11:32:26;;;;;;;4.13;3.83;;;12.20;99.90;;;;;;5052823;28;20174;-80
2023/04/28 11:34:52;;;;;;;3.83;3.53;;;12.20;99.90;;;;;;5052263;28;20242;-81
2023/04/28 11:37:19;;;;;;;4.40;4.00;;;12.20;99.90;;;;;;5053468;28;20209;-81
2023/04/28 11:39:45;;;;;;;4.20;3.80;;;12.20;99.90;;;;;;5053391;28;20204;-81
2023/04/28 11:42:11;;;;;;;4.17;3.77;;;12.20;99.90;;;;;;5052305;28;20193;-80
2023/04/28 11:44:37;;;;;;;4.57;4.17;;;12.30;99.90;;;;;;5054080;28;20169;-81
2023/04/28 11:47:03;;;;;;;4.33;3.90;;;12.30;99.90;;;;;;5053324;28;20245;-80
2023/04/28 11:49:32;;;;;;;4.63;4.20;;;12.30;99.90;;;;;;5052118;28;20174;-81
2023/04/28 11:52:04;;;;;;;5.10;3.60;;;12.30;99.90;;;;;;5052424;28;20201;-81
2023/04/28 11:54:30;;;;;;;3.87;3.57;;;12.40;99.90;;;;;;5052251;28;20245;-81
2023/04/28 11:56:56;;;;;;;4.50;4.10;;;12.40;99.90;;;;;;5053163;28;20320;-81
2023/04/28 11:59:32;;;;;;;5.13;4.20;;;12.40;99.90;;;;;;5051846;28;20724;-80
2023/04/28 12:02:06;;;;;;;4.60;3.80;;;12.40;99.90;;;;;;5052931;28;20556;-80
2023/04/28 12:04:36;;;;;;;4.63;3.60;;;12.50;99.90;;;;;;5052893;28;20261;-81
2023/04/28 12:07:04;;;;;;;4.20;3.80;;;12.50;99.90;;;;;;5053046;28;20213;-81
2023/04/28 12:09:32;;;;;;;3.87;3.43;;;12.60;99.90;;;;;;5053180;28;20236;-80
2023/04/28 12:12:03;;;;;;;4.10;3.70;;;12.60;99.90;;;;;;5053108;28;20652;-80
2023/04/28 12:14:30;;;;;;;4.67;4.07;;;12.70;99.90;;;;;;5052917;28;20176;-81
2023/04/28 12:16:57;;;;;;;4.77;3.80;;;12.70;99.90;;;;;;5051986;28;20209;-80
2023/04/28 12:19:22;;;;;;;4.77;4.27;;;12.70;99.90;;;;;;5051514;28;20177;-81
2023/04/28 12:21:58;;;;;;;4.87;3.97;;;12.90;99.90;;;;;;5053156;28;20164;-81
2023/04/28 12:24:25;;;;;;;5.00;4.33;;;13.10;99.90;;;;;;5051505;28;20169;-81
2023/04/28 12:26:51;;;;;;;4.77;4.00;;;13.10;99.90;;;;;;5053416;28;20627;-81
2023/04/28 12:29:38;;;;;;;5.03;4.17;;;13.20;99.90;;;;;;5052885;28;20178;-80
2023/04/28 12:32:09;;;;;;;5.27;4.60;;;13.30;99.90;;;;;;5052942;28;20179;-81
2023/04/28 12:34:35;;;;;;;4.73;4.33;;;13.40;99.90;;;;;;5053303;28;20191;-81
2023/04/28 12:37:04;;;;;;;6.57;4.70;;;13.30;99.90;;;;;;5053318;28;20231;-81
2023/04/28 12:39:31;;;;;;;5.67;5.07;;;13.30;99.90;;;;;;5053427;28;20204;-80
2023/04/28 12:41:58;;;;;;;6.00;4.80;;;13.30;99.90;;;;;;5052151;28;20211;-81
2023/04/28 12:44:24;;;;;;;5.77;4.87;;;13.30;99.90;;;;;;5053729;28;20172;-80
2023/04/28 12:46:50;;;;;;;5.30;4.70;;;13.30;99.90;;;;;;5056506;28;20223;-81
2023/04/28 12:49:16;;;;;;;5.47;4.93;;;13.30;99.90;;;;;;5057199;28;20177;-81
2023/04/28 12:51:42;;;;;;;4.90;4.40;;;13.30;99.90;;;;;;5057280;28;20656;-81
2023/04/28 12:54:07;;;;;;;5.43;4.77;;;13.20;99.90;;;;;;5057153;28;20261;-81
2023/04/28 12:56:33;;;;;;;6.13;5.50;;;13.20;99.90;;;;;;5057062;28;20292;-82
2023/04/28 12:59:01;;;;;;;6.00;5.00;;;13.20;99.90;;;;;;5057126;28;20177;-81
2023/04/28 13:01:27;;;;;;;6.80;5.10;;;13.30;99.90;;;;;;5057021;28;20215;-81
2023/04/28 13:03:53;;;;;;;7.03;5.53;;;13.30;99.90;;;;;;5057158;28;20260;-81
2023/04/28 13:06:19;;;;;;;6.43;5.30;;;13.40;99.90;;;;;;5056751;28;20255;-81
2023/04/28 13:08:44;;;;;;;7.03;5.93;;;13.40;99.90;;;;;;5055438;28;20170;-81
2023/04/28 13:11:10;;;;;;;6.50;5.57;;;13.40;99.90;;;;;;5056578;28;20268;-80
2023/04/28 13:13:36;;;;;;;6.27;5.67;;;13.50;99.90;;;;;;5055615;28;20197;-81
2023/04/28 13:16:03;;;;;;;7.47;6.03;;;13.70;99.90;;;;;;5055362;28;20205;-81
2023/04/28 13:18:31;;;;;;;7.77;5.47;;;14.40;99.90;;;;;;5055626;28;20630;-81
2023/04/28 13:20:57;;;;;;;6.67;5.87;;;15.30;99.90;;;;;;5055081;28;20181;-82
2023/04/28 13:23:23;;;;;;;7.17;5.70;;;15.70;1.00;;;;;;5055858;28;20204;-81
2023/04/28 13:25:49;;;;;;;6.70;6.00;;;16.00;1.00;;;;;;5054799;28;20180;-88
2023/04/28 13:28:15;;;;;;;6.20;5.50;;;15.70;1.00;;;;;;5056931;28;20193;-80
2023/04/28 13:30:40;;;;;;;6.43;5.73;;;15.70;1.00;;;;;;5056070;28;20260;-80
2023/04/28 13:33:06;;;;;;;6.97;6.07;;;15.70;1.00;;;;;;5056862;28;20181;-80